sensor_id;sensor_type;location;lat;lon;timestamp;P1;durP1;ratioP1;P2;durP2;ratioP2
3625;SDS011;1827;50.534;8.316;2023-05-07T00:00:23;19.30;;;4.80;;
3625;SDS011;1827;50.534;8.316;2023-05-07T00:02:49;21.43;;;4.90;;
3625;SDS011;1827;50.534;8.316;2023-05-07T00:05:15;18.43;;;4.13;;
3625;SDS011;1827;50.534;8.316;2023-05-07T00:07:40;17.90;;;4.60;;
3625;SDS011;1827;50.534;8.316;2023-05-07T00:10:06;21.87;;;4.70;;
3625;SDS011;1827;50.534;8.316;2023-05-07T00:12:32;20.87;;;4.27;;
3625;SDS011;1827;50.534;8.316;2023-05-07T00:15:04;18.17;;;4.10;;
3625;SDS011;1827;50.534;8.316;2023-05-07T00:17:30;17.87;;;4.20;;
3625;SDS011;1827;50.534;8.316;2023-05-07T00:19:57;16.57;;;4.20;;
3625;SDS011;1827;50.534;8.316;2023-05-07T00:22:23;16.57;;;4.20;;
3625;SDS011;1827;50.534;8.316;2023-05-07T00:24:49;20.33;;;4.30;;
3625;SDS011;1827;50.534;8.316;2023-05-07T00:27:15;22.03;;;4.07;;
3625;SDS011;1827;50.534;8.316;2023-05-07T00:29:41;18.27;;;3.80;;
3625;SDS011;1827;50.534;8.316;2023-05-07T00:32:07;19.00;;;4.40;;
3625;SDS011;1827;50.534;8.316;2023-05-07T00:34:35;23.53;;;5.03;;
3625;SDS011;1827;50.534;8.316;2023-05-07T00:37:01;16.90;;;4.40;;
3625;SDS011;1827;50.534;8.316;2023-05-07T00:39:27;17.17;;;4.10;;
3625;SDS011;1827;50.534;8.316;2023-05-07T00:41:52;17.80;;;4.20;;
3625;SDS011;1827;50.534;8.316;2023-05-07T00:44:18;18.10;;;4.30;;
3625;SDS011;1827;50.534;8.316;2023-05-07T00:46:44;22.00;;;4.20;;
3625;SDS011;1827;50.534;8.316;2023-05-07T00:49:10;17.43;;;3.90;;
3625;SDS011;1827;50.534;8.316;2023-05-07T00:51:36;18.47;;;4.20;;
3625;SDS011;1827;50.534;8.316;2023-05-07T00:54:02;18.37;;;3.97;;
3625;SDS011;1827;50.534;8.316;2023-05-07T00:56:28;19.33;;;5.10;;
3625;SDS011;1827;50.534;8.316;2023-05-07T00:58:54;17.47;;;4.33;;
3625;SDS011;1827;50.534;8.316;2023-05-07T01:01:20;17.77;;;4.70;;
3625;SDS011;1827;50.534;8.316;2023-05-07T01:03:46;17.50;;;4.37;;
3625;SDS011;1827;50.534;8.316;2023-05-07T01:06:12;18.30;;;4.40;;
3625;SDS011;1827;50.534;8.316;2023-05-07T01:08:41;20.67;;;4.50;;
3625;SDS011;1827;50.534;8.316;2023-05-07T01:11:07;16.03;;;3.67;;
3625;SDS011;1827;50.534;8.316;2023-05-07T01:13:35;18.90;;;4.53;;
3625;SDS011;1827;50.534;8.316;2023-05-07T01:16:02;16.27;;;4.20;;
3625;SDS011;1827;50.534;8.316;2023-05-07T01:18:28;18.40;;;4.70;;
3625;SDS011;1827;50.534;8.316;2023-05-07T01:20:55;19.10;;;4.27;;
3625;SDS011;1827;50.534;8.316;2023-05-07T01:23:25;19.73;;;4.30;;
3625;SDS011;1827;50.534;8.316;2023-05-07T01:25:53;18.10;;;4.00;;
3625;SDS011;1827;50.534;8.316;2023-05-07T01:28:21;22.83;;;4.00;;
3625;SDS011;1827;50.534;8.316;2023-05-07T01:30:56;18.77;;;4.80;;
3625;SDS011;1827;50.534;8.316;2023-05-07T01:33:26;17.43;;;3.97;;
3625;SDS011;1827;50.534;8.316;2023-05-07T01:35:57;17.40;;;4.20;;
3625;SDS011;1827;50.534;8.316;2023-05-07T01:38:25;16.53;;;4.40;;
3625;SDS011;1827;50.534;8.316;2023-05-07T01:40:52;17.10;;;4.70;;
3625;SDS011;1827;50.534;8.316;2023-05-07T01:43:18;19.27;;;4.47;;
3625;SDS011;1827;50.534;8.316;2023-05-07T01:45:45;17.03;;;4.47;;
3625;SDS011;1827;50.534;8.316;2023-05-07T01:48:11;19.60;;;4.60;;
3625;SDS011;1827;50.534;8.316;2023-05-07T01:50:39;25.37;;;4.67;;
3625;SDS011;1827;50.534;8.316;2023-05-07T01:53:05;16.80;;;4.37;;
3625;SDS011;1827;50.534;8.316;2023-05-07T01:55:31;16.60;;;4.50;;
3625;SDS011;1827;50.534;8.316;2023-05-07T01:57:57;21.87;;;4.63;;
3625;SDS011;1827;50.534;8.316;2023-05-07T02:00:23;18.10;;;4.70;;
3625;SDS011;1827;50.534;8.316;2023-05-07T02:02:49;23.53;;;5.47;;
3625;SDS011;1827;50.534;8.316;2023-05-07T02:05:24;18.47;;;5.10;;
3625;SDS011;1827;50.534;8.316;2023-05-07T02:08:01;19.27;;;4.77;;
3625;SDS011;1827;50.534;8.316;2023-05-07T02:10:29;19.33;;;5.17;;
3625;SDS011;1827;50.534;8.316;2023-05-07T02:12:54;18.70;;;5.10;;
3625;SDS011;1827;50.534;8.316;2023-05-07T02:15:20;20.00;;;5.13;;
3625;SDS011;1827;50.534;8.316;2023-05-07T02:20:53;20.00;;;5.73;;
3625;SDS011;1827;50.534;8.316;2023-05-07T02:23:22;17.20;;;4.80;;
3625;SDS011;1827;50.534;8.316;2023-05-07T02:25:51;18.70;;;5.10;;
3625;SDS011;1827;50.534;8.316;2023-05-07T02:29:15;18.40;;;4.90;;
3625;SDS011;1827;50.534;8.316;2023-05-07T02:31:42;19.97;;;5.60;;
3625;SDS011;1827;50.534;8.316;2023-05-07T02:34:09;19.27;;;5.00;;
3625;SDS011;1827;50.534;8.316;2023-05-07T02:36:35;17.47;;;4.70;;
3625;SDS011;1827;50.534;8.316;2023-05-07T02:39:07;18.90;;;4.50;;
3625;SDS011;1827;50.534;8.316;2023-05-07T02:41:32;20.97;;;5.10;;
3625;SDS011;1827;50.534;8.316;2023-05-07T02:43:58;22.07;;;4.70;;
3625;SDS011;1827;50.534;8.316;2023-05-07T02:46:25;22.80;;;5.20;;
3625;SDS011;1827;50.534;8.316;2023-05-07T02:49:12;19.10;;;5.17;;
3625;SDS011;1827;50.534;8.316;2023-05-07T02:51:37;19.17;;;5.37;;
3625;SDS011;1827;50.534;8.316;2023-05-07T02:54:08;18.20;;;5.40;;
3625;SDS011;1827;50.534;8.316;2023-05-07T02:56:34;18.47;;;5.33;;
3625;SDS011;1827;50.534;8.316;2023-05-07T02:59:00;17.70;;;5.13;;
3625;SDS011;1827;50.534;8.316;2023-05-07T03:01:30;17.83;;;4.57;;
3625;SDS011;1827;50.534;8.316;2023-05-07T03:04:04;21.83;;;4.90;;
3625;SDS011;1827;50.534;8.316;2023-05-07T03:06:30;21.40;;;5.90;;
3625;SDS011;1827;50.534;8.316;2023-05-07T03:08:56;17.73;;;4.47;;
3625;SDS011;1827;50.534;8.316;2023-05-07T03:11:25;21.63;;;4.97;;
3625;SDS011;1827;50.534;8.316;2023-05-07T03:13:51;17.83;;;4.90;;
3625;SDS011;1827;50.534;8.316;2023-05-07T03:16:19;20.83;;;5.40;;
3625;SDS011;1827;50.534;8.316;2023-05-07T03:18:45;19.20;;;5.73;;
3625;SDS011;1827;50.534;8.316;2023-05-07T03:21:10;19.57;;;5.03;;
3625;SDS011;1827;50.534;8.316;2023-05-07T03:23:36;17.13;;;5.30;;
3625;SDS011;1827;50.534;8.316;2023-05-07T03:26:02;17.40;;;5.43;;
3625;SDS011;1827;50.534;8.316;2023-05-07T03:28:28;17.87;;;5.00;;
3625;SDS011;1827;50.534;8.316;2023-05-07T03:30:58;18.40;;;5.10;;
3625;SDS011;1827;50.534;8.316;2023-05-07T03:33:24;17.40;;;4.70;;
3625;SDS011;1827;50.534;8.316;2023-05-07T03:35:50;25.40;;;5.50;;
3625;SDS011;1827;50.534;8.316;2023-05-07T03:38:52;19.37;;;5.10;;
3625;SDS011;1827;50.534;8.316;2023-05-07T03:41:20;17.80;;;5.17;;
3625;SDS011;1827;50.534;8.316;2023-05-07T03:43:47;17.80;;;4.70;;
3625;SDS011;1827;50.534;8.316;2023-05-07T03:46:13;16.60;;;4.90;;
3625;SDS011;1827;50.534;8.316;2023-05-07T03:48:40;17.30;;;5.07;;
3625;SDS011;1827;50.534;8.316;2023-05-07T03:51:06;19.47;;;5.10;;
3625;SDS011;1827;50.534;8.316;2023-05-07T03:53:32;29.00;;;5.77;;
3625;SDS011;1827;50.534;8.316;2023-05-07T03:55:59;18.33;;;5.50;;
3625;SDS011;1827;50.534;8.316;2023-05-07T03:58:24;17.50;;;5.53;;
3625;SDS011;1827;50.534;8.316;2023-05-07T04:00:52;18.17;;;5.37;;
3625;SDS011;1827;50.534;8.316;2023-05-07T04:03:23;17.97;;;5.53;;
3625;SDS011;1827;50.534;8.316;2023-05-07T04:05:49;19.93;;;5.60;;
3625;SDS011;1827;50.534;8.316;2023-05-07T04:08:16;19.70;;;6.20;;
3625;SDS011;1827;50.534;8.316;2023-05-07T04:10:46;19.93;;;6.00;;
3625;SDS011;1827;50.534;8.316;2023-05-07T04:13:12;21.10;;;6.10;;
3625;SDS011;1827;50.534;8.316;2023-05-07T04:15:38;20.73;;;6.50;;
3625;SDS011;1827;50.534;8.316;2023-05-07T04:18:08;19.50;;;5.97;;
3625;SDS011;1827;50.534;8.316;2023-05-07T04:20:34;20.97;;;5.60;;
3625;SDS011;1827;50.534;8.316;2023-05-07T04:23:03;20.57;;;5.80;;
3625;SDS011;1827;50.534;8.316;2023-05-07T04:25:29;16.90;;;5.13;;
3625;SDS011;1827;50.534;8.316;2023-05-07T04:28:02;21.30;;;5.87;;
3625;SDS011;1827;50.534;8.316;2023-05-07T04:30:29;20.33;;;5.50;;
3625;SDS011;1827;50.534;8.316;2023-05-07T04:32:57;18.00;;;5.80;;
3625;SDS011;1827;50.534;8.316;2023-05-07T04:35:25;18.97;;;5.83;;
3625;SDS011;1827;50.534;8.316;2023-05-07T04:37:51;19.63;;;5.90;;
3625;SDS011;1827;50.534;8.316;2023-05-07T04:40:17;20.77;;;5.43;;
3625;SDS011;1827;50.534;8.316;2023-05-07T04:42:43;20.47;;;5.60;;
3625;SDS011;1827;50.534;8.316;2023-05-07T04:45:09;20.13;;;5.30;;
3625;SDS011;1827;50.534;8.316;2023-05-07T04:47:37;19.30;;;5.97;;
3625;SDS011;1827;50.534;8.316;2023-05-07T04:50:03;17.93;;;5.40;;
3625;SDS011;1827;50.534;8.316;2023-05-07T04:52:30;17.90;;;5.50;;
3625;SDS011;1827;50.534;8.316;2023-05-07T04:54:58;19.20;;;6.00;;
3625;SDS011;1827;50.534;8.316;2023-05-07T04:57:25;18.17;;;5.93;;
3625;SDS011;1827;50.534;8.316;2023-05-07T04:59:51;17.03;;;5.50;;
3625;SDS011;1827;50.534;8.316;2023-05-07T05:02:17;23.90;;;6.00;;
3625;SDS011;1827;50.534;8.316;2023-05-07T05:04:43;20.97;;;6.37;;
3625;SDS011;1827;50.534;8.316;2023-05-07T05:07:09;19.47;;;5.47;;
3625;SDS011;1827;50.534;8.316;2023-05-07T05:09:35;18.73;;;5.63;;
3625;SDS011;1827;50.534;8.316;2023-05-07T05:12:00;21.03;;;6.40;;
3625;SDS011;1827;50.534;8.316;2023-05-07T05:14:27;19.13;;;6.17;;
3625;SDS011;1827;50.534;8.316;2023-05-07T05:16:54;21.40;;;6.13;;
3625;SDS011;1827;50.534;8.316;2023-05-07T05:19:19;22.60;;;6.97;;
3625;SDS011;1827;50.534;8.316;2023-05-07T05:21:45;19.70;;;7.10;;
3625;SDS011;1827;50.534;8.316;2023-05-07T05:24:12;18.00;;;5.97;;
3625;SDS011;1827;50.534;8.316;2023-05-07T05:26:38;19.97;;;6.80;;
3625;SDS011;1827;50.534;8.316;2023-05-07T05:29:04;21.10;;;6.70;;
3625;SDS011;1827;50.534;8.316;2023-05-07T05:31:31;19.90;;;6.67;;
3625;SDS011;1827;50.534;8.316;2023-05-07T05:33:56;21.57;;;7.67;;
3625;SDS011;1827;50.534;8.316;2023-05-07T05:36:24;22.37;;;7.73;;
3625;SDS011;1827;50.534;8.316;2023-05-07T05:38:53;23.17;;;8.37;;
3625;SDS011;1827;50.534;8.316;2023-05-07T05:41:20;21.00;;;7.73;;
3625;SDS011;1827;50.534;8.316;2023-05-07T05:43:46;26.17;;;7.80;;
3625;SDS011;1827;50.534;8.316;2023-05-07T05:46:12;21.53;;;8.13;;
3625;SDS011;1827;50.534;8.316;2023-05-07T05:48:38;21.17;;;7.97;;
3625;SDS011;1827;50.534;8.316;2023-05-07T05:51:05;20.97;;;7.97;;
3625;SDS011;1827;50.534;8.316;2023-05-07T05:53:31;22.13;;;8.97;;
3625;SDS011;1827;50.534;8.316;2023-05-07T05:55:56;27.10;;;9.20;;
3625;SDS011;1827;50.534;8.316;2023-05-07T05:58:23;22.77;;;8.80;;
3625;SDS011;1827;50.534;8.316;2023-05-07T06:00:54;29.90;;;10.07;;
3625;SDS011;1827;50.534;8.316;2023-05-07T06:03:23;22.90;;;8.70;;
3625;SDS011;1827;50.534;8.316;2023-05-07T06:05:49;23.30;;;8.80;;
3625;SDS011;1827;50.534;8.316;2023-05-07T06:08:17;21.23;;;8.83;;
3625;SDS011;1827;50.534;8.316;2023-05-07T06:10:43;21.50;;;8.40;;
3625;SDS011;1827;50.534;8.316;2023-05-07T06:13:09;24.23;;;9.17;;
3625;SDS011;1827;50.534;8.316;2023-05-07T06:15:36;29.03;;;10.03;;
3625;SDS011;1827;50.534;8.316;2023-05-07T06:18:07;27.23;;;9.50;;
3625;SDS011;1827;50.534;8.316;2023-05-07T06:20:33;28.83;;;11.47;;
3625;SDS011;1827;50.534;8.316;2023-05-07T06:23:02;29.10;;;9.20;;
3625;SDS011;1827;50.534;8.316;2023-05-07T06:25:29;22.40;;;9.70;;
3625;SDS011;1827;50.534;8.316;2023-05-07T06:27:54;26.00;;;9.90;;
3625;SDS011;1827;50.534;8.316;2023-05-07T06:30:22;26.10;;;10.43;;
3625;SDS011;1827;50.534;8.316;2023-05-07T06:32:48;25.60;;;10.10;;
3625;SDS011;1827;50.534;8.316;2023-05-07T06:35:14;25.90;;;9.87;;
3625;SDS011;1827;50.534;8.316;2023-05-07T06:37:41;25.13;;;10.00;;
3625;SDS011;1827;50.534;8.316;2023-05-07T06:40:11;25.60;;;10.00;;
3625;SDS011;1827;50.534;8.316;2023-05-07T06:42:38;26.07;;;11.37;;
3625;SDS011;1827;50.534;8.316;2023-05-07T06:45:23;29.43;;;11.97;;
3625;SDS011;1827;50.534;8.316;2023-05-07T06:47:51;26.93;;;12.03;;
3625;SDS011;1827;50.534;8.316;2023-05-07T06:50:17;30.70;;;12.20;;
3625;SDS011;1827;50.534;8.316;2023-05-07T06:52:43;27.20;;;12.67;;
3625;SDS011;1827;50.534;8.316;2023-05-07T06:55:09;25.70;;;11.40;;
3625;SDS011;1827;50.534;8.316;2023-05-07T06:57:36;26.93;;;12.20;;
3625;SDS011;1827;50.534;8.316;2023-05-07T07:00:03;31.40;;;13.43;;
3625;SDS011;1827;50.534;8.316;2023-05-07T07:02:39;27.20;;;11.80;;
3625;SDS011;1827;50.534;8.316;2023-05-07T07:05:05;30.23;;;12.37;;
3625;SDS011;1827;50.534;8.316;2023-05-07T07:07:31;27.77;;;11.10;;
3625;SDS011;1827;50.534;8.316;2023-05-07T07:09:57;27.17;;;10.90;;
3625;SDS011;1827;50.534;8.316;2023-05-07T07:12:23;30.23;;;11.27;;
3625;SDS011;1827;50.534;8.316;2023-05-07T07:14:51;27.13;;;11.60;;
3625;SDS011;1827;50.534;8.316;2023-05-07T07:17:17;28.37;;;11.17;;
3625;SDS011;1827;50.534;8.316;2023-05-07T07:19:43;26.33;;;11.20;;
3625;SDS011;1827;50.534;8.316;2023-05-07T07:22:08;29.93;;;11.47;;
3625;SDS011;1827;50.534;8.316;2023-05-07T07:24:36;26.30;;;11.40;;
3625;SDS011;1827;50.534;8.316;2023-05-07T07:27:04;25.90;;;12.27;;
3625;SDS011;1827;50.534;8.316;2023-05-07T07:29:32;28.40;;;11.23;;
3625;SDS011;1827;50.534;8.316;2023-05-07T07:31:58;23.77;;;10.70;;
3625;SDS011;1827;50.534;8.316;2023-05-07T07:34:24;25.13;;;11.43;;
3625;SDS011;1827;50.534;8.316;2023-05-07T07:36:50;30.00;;;11.57;;
3625;SDS011;1827;50.534;8.316;2023-05-07T07:39:18;26.67;;;11.20;;
3625;SDS011;1827;50.534;8.316;2023-05-07T07:41:48;25.73;;;11.27;;
3625;SDS011;1827;50.534;8.316;2023-05-07T07:44:15;25.43;;;10.77;;
3625;SDS011;1827;50.534;8.316;2023-05-07T07:46:40;25.13;;;10.40;;
3625;SDS011;1827;50.534;8.316;2023-05-07T07:49:06;27.53;;;11.90;;
3625;SDS011;1827;50.534;8.316;2023-05-07T07:51:33;26.00;;;11.90;;
3625;SDS011;1827;50.534;8.316;2023-05-07T07:54:02;27.00;;;12.40;;
3625;SDS011;1827;50.534;8.316;2023-05-07T07:56:31;28.80;;;13.17;;
3625;SDS011;1827;50.534;8.316;2023-05-07T07:59:01;28.23;;;13.70;;
3625;SDS011;1827;50.534;8.316;2023-05-07T08:01:28;27.87;;;13.23;;
3625;SDS011;1827;50.534;8.316;2023-05-07T08:03:55;29.80;;;14.37;;
3625;SDS011;1827;50.534;8.316;2023-05-07T08:06:21;29.03;;;13.57;;
3625;SDS011;1827;50.534;8.316;2023-05-07T08:08:47;33.10;;;14.30;;
3625;SDS011;1827;50.534;8.316;2023-05-07T08:11:13;26.17;;;13.07;;
3625;SDS011;1827;50.534;8.316;2023-05-07T08:13:39;28.53;;;13.20;;
3625;SDS011;1827;50.534;8.316;2023-05-07T08:16:08;28.20;;;12.43;;
3625;SDS011;1827;50.534;8.316;2023-05-07T08:18:35;27.93;;;12.70;;
3625;SDS011;1827;50.534;8.316;2023-05-07T08:21:02;36.47;;;13.27;;
3625;SDS011;1827;50.534;8.316;2023-05-07T08:23:30;27.83;;;13.20;;
3625;SDS011;1827;50.534;8.316;2023-05-07T08:25:56;31.33;;;14.53;;
3625;SDS011;1827;50.534;8.316;2023-05-07T08:28:22;26.90;;;13.17;;
3625;SDS011;1827;50.534;8.316;2023-05-07T08:30:53;27.87;;;13.20;;
3625;SDS011;1827;50.534;8.316;2023-05-07T08:33:19;30.37;;;12.60;;
3625;SDS011;1827;50.534;8.316;2023-05-07T08:36:11;25.90;;;12.90;;
3625;SDS011;1827;50.534;8.316;2023-05-07T08:38:37;27.90;;;13.13;;
3625;SDS011;1827;50.534;8.316;2023-05-07T08:41:09;27.63;;;12.30;;
3625;SDS011;1827;50.534;8.316;2023-05-07T08:43:36;28.03;;;12.10;;
3625;SDS011;1827;50.534;8.316;2023-05-07T08:46:05;26.90;;;11.07;;
3625;SDS011;1827;50.534;8.316;2023-05-07T08:48:35;28.10;;;12.87;;
3625;SDS011;1827;50.534;8.316;2023-05-07T08:51:14;28.83;;;11.50;;
3625;SDS011;1827;50.534;8.316;2023-05-07T08:53:43;26.43;;;13.30;;
3625;SDS011;1827;50.534;8.316;2023-05-07T08:56:14;26.80;;;12.87;;
3625;SDS011;1827;50.534;8.316;2023-05-07T08:58:43;30.47;;;12.97;;
3625;SDS011;1827;50.534;8.316;2023-05-07T09:01:10;27.67;;;12.50;;
3625;SDS011;1827;50.534;8.316;2023-05-07T09:03:39;26.30;;;12.00;;
3625;SDS011;1827;50.534;8.316;2023-05-07T09:06:06;27.67;;;12.23;;
3625;SDS011;1827;50.534;8.316;2023-05-07T09:08:33;25.50;;;12.00;;
3625;SDS011;1827;50.534;8.316;2023-05-07T09:11:01;27.80;;;11.73;;
3625;SDS011;1827;50.534;8.316;2023-05-07T09:13:29;25.60;;;10.90;;
3625;SDS011;1827;50.534;8.316;2023-05-07T09:15:59;22.33;;;9.73;;
3625;SDS011;1827;50.534;8.316;2023-05-07T09:18:43;27.13;;;11.17;;
3625;SDS011;1827;50.534;8.316;2023-05-07T09:21:11;22.90;;;10.23;;
3625;SDS011;1827;50.534;8.316;2023-05-07T09:23:41;26.50;;;9.37;;
3625;SDS011;1827;50.534;8.316;2023-05-07T09:26:08;23.80;;;8.93;;
3625;SDS011;1827;50.534;8.316;2023-05-07T09:28:40;23.03;;;9.43;;
3625;SDS011;1827;50.534;8.316;2023-05-07T09:31:12;20.60;;;8.43;;
3625;SDS011;1827;50.534;8.316;2023-05-07T09:33:39;23.93;;;8.47;;
3625;SDS011;1827;50.534;8.316;2023-05-07T09:36:07;26.00;;;8.07;;
3625;SDS011;1827;50.534;8.316;2023-05-07T09:38:37;23.03;;;9.23;;
3625;SDS011;1827;50.534;8.316;2023-05-07T09:43:54;21.70;;;8.53;;
3625;SDS011;1827;50.534;8.316;2023-05-07T09:46:27;23.53;;;9.00;;
3625;SDS011;1827;50.534;8.316;2023-05-07T09:48:59;22.90;;;8.00;;
3625;SDS011;1827;50.534;8.316;2023-05-07T09:51:43;22.27;;;9.07;;
3625;SDS011;1827;50.534;8.316;2023-05-07T09:54:14;22.33;;;8.57;;
3625;SDS011;1827;50.534;8.316;2023-05-07T09:56:44;23.33;;;9.70;;
3625;SDS011;1827;50.534;8.316;2023-05-07T09:59:12;21.13;;;7.83;;
3625;SDS011;1827;50.534;8.316;2023-05-07T10:01:43;21.90;;;8.67;;
3625;SDS011;1827;50.534;8.316;2023-05-07T10:04:12;26.40;;;9.03;;
3625;SDS011;1827;50.534;8.316;2023-05-07T10:06:41;21.90;;;9.30;;
3625;SDS011;1827;50.534;8.316;2023-05-07T10:09:09;23.93;;;9.67;;
3625;SDS011;1827;50.534;8.316;2023-05-07T10:11:36;25.70;;;10.00;;
3625;SDS011;1827;50.534;8.316;2023-05-07T10:14:03;27.50;;;9.90;;
3625;SDS011;1827;50.534;8.316;2023-05-07T10:16:34;23.87;;;9.70;;
3625;SDS011;1827;50.534;8.316;2023-05-07T10:19:08;26.00;;;10.70;;
3625;SDS011;1827;50.534;8.316;2023-05-07T10:21:39;26.60;;;9.50;;
3625;SDS011;1827;50.534;8.316;2023-05-07T10:24:19;23.17;;;10.00;;
3625;SDS011;1827;50.534;8.316;2023-05-07T10:26:48;24.03;;;9.77;;
3625;SDS011;1827;50.534;8.316;2023-05-07T10:31:54;21.83;;;8.90;;
3625;SDS011;1827;50.534;8.316;2023-05-07T10:34:32;24.40;;;9.10;;
3625;SDS011;1827;50.534;8.316;2023-05-07T10:37:03;21.83;;;8.57;;
3625;SDS011;1827;50.534;8.316;2023-05-07T10:39:32;24.27;;;8.90;;
3625;SDS011;1827;50.534;8.316;2023-05-07T10:42:09;22.37;;;8.53;;
3625;SDS011;1827;50.534;8.316;2023-05-07T10:44:37;23.50;;;7.80;;
3625;SDS011;1827;50.534;8.316;2023-05-07T10:47:11;19.30;;;7.90;;
3625;SDS011;1827;50.534;8.316;2023-05-07T10:52:19;22.57;;;8.50;;
3625;SDS011;1827;50.534;8.316;2023-05-07T10:57:48;25.40;;;7.50;;
3625;SDS011;1827;50.534;8.316;2023-05-07T11:05:25;19.70;;;7.97;;
3625;SDS011;1827;50.534;8.316;2023-05-07T11:08:08;22.00;;;7.30;;
3625;SDS011;1827;50.534;8.316;2023-05-07T11:10:52;19.80;;;7.70;;
3625;SDS011;1827;50.534;8.316;2023-05-07T11:13:43;21.73;;;8.30;;
3625;SDS011;1827;50.534;8.316;2023-05-07T11:16:25;20.87;;;7.63;;
3625;SDS011;1827;50.534;8.316;2023-05-07T11:19:10;23.50;;;7.77;;
3625;SDS011;1827;50.534;8.316;2023-05-07T11:21:41;21.70;;;8.40;;
3625;SDS011;1827;50.534;8.316;2023-05-07T11:24:27;18.30;;;6.70;;
3625;SDS011;1827;50.534;8.316;2023-05-07T11:26:58;17.90;;;6.27;;
3625;SDS011;1827;50.534;8.316;2023-05-07T11:29:26;22.00;;;6.20;;
3625;SDS011;1827;50.534;8.316;2023-05-07T11:32:03;19.27;;;7.10;;
3625;SDS011;1827;50.534;8.316;2023-05-07T11:34:34;19.33;;;6.60;;
3625;SDS011;1827;50.534;8.316;2023-05-07T11:37:01;17.50;;;5.80;;
3625;SDS011;1827;50.534;8.316;2023-05-07T11:39:38;22.00;;;6.20;;
3625;SDS011;1827;50.534;8.316;2023-05-07T11:42:04;17.77;;;6.47;;
3625;SDS011;1827;50.534;8.316;2023-05-07T11:44:40;19.33;;;6.80;;
3625;SDS011;1827;50.534;8.316;2023-05-07T11:47:07;20.30;;;7.10;;
3625;SDS011;1827;50.534;8.316;2023-05-07T11:49:33;19.40;;;6.73;;
3625;SDS011;1827;50.534;8.316;2023-05-07T11:51:59;17.77;;;5.73;;
3625;SDS011;1827;50.534;8.316;2023-05-07T11:54:37;19.00;;;6.20;;
3625;SDS011;1827;50.534;8.316;2023-05-07T11:57:02;18.00;;;6.30;;
3625;SDS011;1827;50.534;8.316;2023-05-07T11:59:28;19.33;;;6.70;;
3625;SDS011;1827;50.534;8.316;2023-05-07T12:01:57;20.17;;;6.57;;
3625;SDS011;1827;50.534;8.316;2023-05-07T12:04:30;24.20;;;8.23;;
3625;SDS011;1827;50.534;8.316;2023-05-07T12:07:23;19.00;;;7.00;;
3625;SDS011;1827;50.534;8.316;2023-05-07T12:09:49;19.17;;;6.83;;
3625;SDS011;1827;50.534;8.316;2023-05-07T12:12:15;19.63;;;7.27;;
3625;SDS011;1827;50.534;8.316;2023-05-07T12:14:42;23.07;;;7.07;;
3625;SDS011;1827;50.534;8.316;2023-05-07T12:17:09;19.97;;;6.67;;
3625;SDS011;1827;50.534;8.316;2023-05-07T12:19:36;20.47;;;7.90;;
3625;SDS011;1827;50.534;8.316;2023-05-07T12:22:04;20.80;;;7.17;;
3625;SDS011;1827;50.534;8.316;2023-05-07T12:24:43;22.40;;;8.03;;
3625;SDS011;1827;50.534;8.316;2023-05-07T12:27:13;18.17;;;6.70;;
3625;SDS011;1827;50.534;8.316;2023-05-07T12:29:43;18.90;;;6.57;;
3625;SDS011;1827;50.534;8.316;2023-05-07T12:32:13;19.20;;;6.67;;
3625;SDS011;1827;50.534;8.316;2023-05-07T12:34:40;21.60;;;7.50;;
3625;SDS011;1827;50.534;8.316;2023-05-07T12:37:05;21.53;;;6.83;;
3625;SDS011;1827;50.534;8.316;2023-05-07T12:39:31;22.93;;;6.67;;
3625;SDS011;1827;50.534;8.316;2023-05-07T12:41:58;18.10;;;6.47;;
3625;SDS011;1827;50.534;8.316;2023-05-07T12:44:31;20.33;;;6.80;;
3625;SDS011;1827;50.534;8.316;2023-05-07T12:46:58;24.10;;;6.77;;
3625;SDS011;1827;50.534;8.316;2023-05-07T12:49:29;18.67;;;6.80;;
3625;SDS011;1827;50.534;8.316;2023-05-07T12:51:55;20.30;;;8.00;;
3625;SDS011;1827;50.534;8.316;2023-05-07T12:54:30;19.27;;;7.20;;
3625;SDS011;1827;50.534;8.316;2023-05-07T12:57:04;19.17;;;7.00;;
3625;SDS011;1827;50.534;8.316;2023-05-07T12:59:36;17.70;;;6.33;;
3625;SDS011;1827;50.534;8.316;2023-05-07T13:02:08;19.63;;;6.90;;
3625;SDS011;1827;50.534;8.316;2023-05-07T13:04:35;21.73;;;6.50;;
3625;SDS011;1827;50.534;8.316;2023-05-07T13:07:01;19.00;;;6.07;;
3625;SDS011;1827;50.534;8.316;2023-05-07T13:09:27;17.80;;;6.27;;
3625;SDS011;1827;50.534;8.316;2023-05-07T13:11:57;18.10;;;6.23;;
3625;SDS011;1827;50.534;8.316;2023-05-07T13:14:29;18.00;;;5.90;;
3625;SDS011;1827;50.534;8.316;2023-05-07T13:16:56;21.53;;;6.03;;
3625;SDS011;1827;50.534;8.316;2023-05-07T13:19:22;23.33;;;6.20;;
3625;SDS011;1827;50.534;8.316;2023-05-07T13:21:48;20.70;;;6.33;;
3625;SDS011;1827;50.534;8.316;2023-05-07T13:24:15;22.83;;;5.87;;
3625;SDS011;1827;50.534;8.316;2023-05-07T13:26:41;19.50;;;5.67;;
3625;SDS011;1827;50.534;8.316;2023-05-07T13:29:06;18.07;;;6.00;;
3625;SDS011;1827;50.534;8.316;2023-05-07T13:31:32;20.57;;;6.03;;
3625;SDS011;1827;50.534;8.316;2023-05-07T13:33:58;20.20;;;6.30;;
3625;SDS011;1827;50.534;8.316;2023-05-07T13:36:24;18.53;;;6.33;;
3625;SDS011;1827;50.534;8.316;2023-05-07T13:38:50;17.97;;;6.20;;
3625;SDS011;1827;50.534;8.316;2023-05-07T13:41:16;25.13;;;7.50;;
3625;SDS011;1827;50.534;8.316;2023-05-07T13:43:42;20.97;;;6.87;;
3625;SDS011;1827;50.534;8.316;2023-05-07T13:46:08;20.30;;;6.17;;
3625;SDS011;1827;50.534;8.316;2023-05-07T13:48:35;18.07;;;6.17;;
3625;SDS011;1827;50.534;8.316;2023-05-07T13:51:00;19.03;;;6.50;;
3625;SDS011;1827;50.534;8.316;2023-05-07T13:53:26;16.90;;;5.37;;
3625;SDS011;1827;50.534;8.316;2023-05-07T13:55:52;16.70;;;5.20;;
3625;SDS011;1827;50.534;8.316;2023-05-07T13:58:18;15.90;;;4.80;;
3625;SDS011;1827;50.534;8.316;2023-05-07T14:00:44;16.17;;;5.20;;
3625;SDS011;1827;50.534;8.316;2023-05-07T14:03:10;18.30;;;5.47;;
3625;SDS011;1827;50.534;8.316;2023-05-07T14:05:36;16.70;;;5.30;;
3625;SDS011;1827;50.534;8.316;2023-05-07T14:08:01;18.37;;;5.57;;
3625;SDS011;1827;50.534;8.316;2023-05-07T14:10:28;16.77;;;5.20;;
3625;SDS011;1827;50.534;8.316;2023-05-07T14:12:54;17.87;;;6.17;;
3625;SDS011;1827;50.534;8.316;2023-05-07T14:15:20;18.07;;;5.07;;
3625;SDS011;1827;50.534;8.316;2023-05-07T14:17:46;16.33;;;4.80;;
3625;SDS011;1827;50.534;8.316;2023-05-07T14:20:12;15.80;;;5.00;;
3625;SDS011;1827;50.534;8.316;2023-05-07T14:22:38;17.40;;;5.53;;
3625;SDS011;1827;50.534;8.316;2023-05-07T14:25:04;20.73;;;5.20;;
3625;SDS011;1827;50.534;8.316;2023-05-07T14:27:30;15.40;;;4.87;;
3625;SDS011;1827;50.534;8.316;2023-05-07T14:29:55;16.27;;;4.93;;
3625;SDS011;1827;50.534;8.316;2023-05-07T14:32:22;20.10;;;5.73;;
3625;SDS011;1827;50.534;8.316;2023-05-07T14:34:49;29.83;;;8.30;;
3625;SDS011;1827;50.534;8.316;2023-05-07T14:37:15;46.37;;;10.80;;
3625;SDS011;1827;50.534;8.316;2023-05-07T14:39:41;25.50;;;8.37;;
3625;SDS011;1827;50.534;8.316;2023-05-07T14:42:08;22.73;;;6.47;;
3625;SDS011;1827;50.534;8.316;2023-05-07T14:44:34;19.70;;;5.67;;
3625;SDS011;1827;50.534;8.316;2023-05-07T14:47:00;22.47;;;5.40;;
3625;SDS011;1827;50.534;8.316;2023-05-07T14:49:29;22.53;;;5.77;;
3625;SDS011;1827;50.534;8.316;2023-05-07T14:51:56;20.70;;;6.10;;
3625;SDS011;1827;50.534;8.316;2023-05-07T14:54:26;16.83;;;5.33;;
3625;SDS011;1827;50.534;8.316;2023-05-07T14:56:55;17.73;;;4.90;;
3625;SDS011;1827;50.534;8.316;2023-05-07T14:59:21;58.33;;;11.17;;
3625;SDS011;1827;50.534;8.316;2023-05-07T15:01:47;20.00;;;5.33;;
3625;SDS011;1827;50.534;8.316;2023-05-07T15:04:13;63.67;;;11.50;;
3625;SDS011;1827;50.534;8.316;2023-05-07T15:06:38;29.87;;;8.20;;
3625;SDS011;1827;50.534;8.316;2023-05-07T15:09:04;16.90;;;4.97;;
3625;SDS011;1827;50.534;8.316;2023-05-07T15:11:34;18.83;;;5.27;;
3625;SDS011;1827;50.534;8.316;2023-05-07T15:14:01;26.87;;;8.30;;
3625;SDS011;1827;50.534;8.316;2023-05-07T15:16:27;20.13;;;5.17;;
3625;SDS011;1827;50.534;8.316;2023-05-07T15:18:53;31.90;;;6.30;;
3625;SDS011;1827;50.534;8.316;2023-05-07T15:21:18;17.33;;;4.97;;
3625;SDS011;1827;50.534;8.316;2023-05-07T15:23:44;17.93;;;5.50;;